Time;durP1;ratioP1;P1;durP2;ratioP2;P2;SDS_P1;SDS_P2;PMS_P1;PMS_P2;Temp;Humidity;BMP_temperature;BMP_pressure;BME280_temperature;BME280_humidity;BME280_pressure;Samples;Min_cycle;Max_cycle;Signal;HPM_P1;HPM_P2
2022/01/02 00:01:42;;;;;;;60.17;25.20;;;10.00;99.90;;;;;;5034072;28;20658;-82
2022/01/02 00:04:14;;;;;;;56.60;26.10;;;10.00;99.90;;;;;;5034821;28;20184;-82
2022/01/02 00:06:46;;;;;;;60.00;24.83;;;10.00;99.90;;;;;;5034257;28;20213;-81
2022/01/02 00:09:30;;;;;;;64.87;25.73;;;10.00;99.90;;;;;;5034352;28;20280;-84
2022/01/02 00:12:04;;;;;;;56.35;24.40;;;10.00;99.90;;;;;;5034078;28;20189;-82
2022/01/02 00:14:34;;;;;;;53.63;24.37;;;10.00;99.90;;;;;;5033871;28;20244;-81
2022/01/02 00:17:03;;;;;;;48.13;23.10;;;10.00;99.90;;;;;;5034157;28;20609;-81
2022/01/02 00:19:32;;;;;;;48.80;22.43;;;10.10;99.90;;;;;;5033722;28;20241;-81
2022/01/02 00:22:03;;;;;;;49.27;22.47;;;10.10;99.90;;;;;;5033733;28;20250;-82
2022/01/02 00:24:32;;;;;;;49.50;24.27;;;10.10;99.90;;;;;;5033698;28;20562;-82
2022/01/02 00:27:00;;;;;;;43.80;20.77;;;10.00;99.90;;;;;;5033923;28;20197;-81
2022/01/02 00:29:27;;;;;;;50.77;20.47;;;10.00;99.90;;;;;;5033701;28;20212;-81
2022/01/02 00:31:56;;;;;;;43.80;21.17;;;10.00;99.90;;;;;;5033253;28;20203;-81
2022/01/02 00:34:24;;;;;;;46.53;22.23;;;10.00;99.90;;;;;;5033366;28;20197;-82
2022/01/02 00:36:51;;;;;;;43.37;20.13;;;10.00;99.90;;;;;;5032946;28;20197;-83
2022/01/02 00:39:18;;;;;;;45.37;22.63;;;10.00;99.90;;;;;;5033357;28;20199;-81
2022/01/02 00:41:54;;;;;;;48.93;23.10;;;10.00;99.90;;;;;;5033218;28;20250;-82
2022/01/02 00:44:33;;;;;;;37.60;19.33;;;10.00;99.90;;;;;;5032955;28;20686;-81
2022/01/02 00:47:07;;;;;;;43.80;18.87;;;10.00;99.90;;;;;;5033570;28;20266;-82
2022/01/02 00:49:41;;;;;;;38.87;19.53;;;10.00;99.90;;;;;;5033135;28;20246;-82
2022/01/02 00:52:14;;;;;;;36.40;18.23;;;10.00;99.90;;;;;;5033204;28;20271;-82
2022/01/02 00:54:45;;;;;;;39.30;19.03;;;10.00;99.90;;;;;;5033881;28;20188;-82
2022/01/02 00:57:18;;;;;;;40.17;19.77;;;10.00;99.90;;;;;;5033237;28;20286;-81
2022/01/02 00:59:54;;;;;;;41.50;18.17;;;10.00;99.90;;;;;;5033649;28;20186;-82
2022/01/02 01:02:29;;;;;;;36.23;16.63;;;10.00;99.90;;;;;;5032065;28;20244;-81
2022/01/02 01:04:59;;;;;;;33.37;15.80;;;10.00;99.90;;;;;;5033363;28;20309;-82
2022/01/02 01:07:28;;;;;;;31.87;13.90;;;10.00;99.90;;;;;;5032815;28;20226;-81
2022/01/02 01:09:57;;;;;;;29.20;13.37;;;10.00;99.90;;;;;;5032737;28;20256;-81
2022/01/02 01:12:26;;;;;;;22.73;12.23;;;10.00;99.90;;;;;;5032352;28;20233;-81
2022/01/02 01:14:54;;;;;;;23.87;12.20;;;10.10;99.90;;;;;;5032264;28;20192;-83
2022/01/02 01:17:21;;;;;;;29.77;12.63;;;10.10;99.90;;;;;;5032873;28;20195;-81
2022/01/02 01:19:51;;;;;;;26.57;12.73;;;10.10;99.90;;;;;;5033025;28;20299;-83
2022/01/02 01:22:18;;;;;;;20.00;11.37;;;10.10;99.90;;;;;;5032347;28;20602;-81
2022/01/02 01:24:45;;;;;;;24.73;12.00;;;10.10;99.90;;;;;;5033116;28;20624;-81
2022/01/02 01:27:12;;;;;;;27.03;12.63;;;10.00;99.90;;;;;;5032773;28;20200;-81
2022/01/02 01:29:40;;;;;;;27.57;12.90;;;10.00;99.90;;;;;;5032579;28;20274;-82
2022/01/02 01:32:09;;;;;;;23.87;12.13;;;10.00;99.90;;;;;;5032204;28;20723;-82
2022/01/02 01:34:38;;;;;;;23.00;11.97;;;10.00;99.90;;;;;;5032615;28;20191;-81
2022/01/02 01:37:07;;;;;;;21.07;11.13;;;9.90;99.90;;;;;;5031863;28;20202;-82
2022/01/02 01:39:34;;;;;;;26.80;11.77;;;9.90;99.90;;;;;;5032713;28;20273;-81
2022/01/02 01:42:07;;;;;;;28.13;10.90;;;9.80;99.90;;;;;;5031984;28;20204;-82
2022/01/02 01:45:28;;;;;;;23.00;10.53;;;9.80;99.90;;;;;;5032310;28;20178;-82
2022/01/02 01:47:41;;;;;;;24.27;11.20;;;9.70;99.90;;;;;;5032037;28;20572;-82
2022/01/02 01:50:09;;;;;;;26.40;11.63;;;9.70;99.90;;;;;;5032521;28;20213;-82
2022/01/02 01:52:36;;;;;;;21.60;11.33;;;9.70;99.90;;;;;;5031787;28;20192;-81
2022/01/02 01:55:04;;;;;;;30.63;12.23;;;9.60;99.90;;;;;;5032259;28;20197;-81
2022/01/02 01:57:31;;;;;;;19.83;10.93;;;9.60;99.90;;;;;;5032446;28;20240;-82
2022/01/02 01:59:58;;;;;;;24.27;11.97;;;9.60;99.90;;;;;;5032470;28;20283;-82
2022/01/02 02:02:24;;;;;;;23.03;11.93;;;9.60;99.90;;;;;;5032065;28;20193;-81
2022/01/02 02:04:53;;;;;;;19.03;11.37;;;9.60;99.90;;;;;;5032250;28;20252;-82
2022/01/02 02:07:27;;;;;;;20.97;11.37;;;9.60;99.90;;;;;;5012607;28;20196;-83
2022/01/02 02:10:04;;;;;;;25.03;12.57;;;9.60;99.90;;;;;;5012306;28;20704;-81
2022/01/02 02:12:31;;;;;;;20.10;11.27;;;9.70;99.90;;;;;;5012173;28;20184;-82
2022/01/02 02:14:58;;;;;;;23.30;11.47;;;9.70;99.90;;;;;;5015817;28;20192;-82
2022/01/02 02:17:27;;;;;;;21.63;11.53;;;9.70;99.90;;;;;;5016499;28;20242;-83
2022/01/02 02:19:59;;;;;;;23.20;10.43;;;9.70;99.90;;;;;;5016303;28;20254;-83
2022/01/02 02:22:26;;;;;;;22.27;11.10;;;9.70;99.90;;;;;;5015836;28;20192;-82
2022/01/02 02:24:53;;;;;;;22.17;11.67;;;9.70;99.90;;;;;;5016145;28;20647;-82
2022/01/02 02:27:23;;;;;;;20.90;10.13;;;9.70;99.90;;;;;;5016271;28;20199;-82
2022/01/02 02:29:50;;;;;;;20.23;9.23;;;9.70;99.90;;;;;;5016557;28;20294;-82
2022/01/02 02:32:17;;;;;;;20.77;8.67;;;9.80;99.90;;;;;;5016024;28;20199;-82
2022/01/02 02:34:45;;;;;;;14.13;8.70;;;9.80;99.90;;;;;;5017900;28;20250;-81
2022/01/02 02:37:13;;;;;;;19.53;9.63;;;9.70;99.90;;;;;;5035815;28;20312;-82
2022/01/02 02:39:40;;;;;;;14.00;9.23;;;9.70;99.90;;;;;;5035589;28;20190;-83
2022/01/02 02:42:16;;;;;;;15.70;9.10;;;9.70;99.90;;;;;;5035630;28;20257;-82
2022/01/02 02:44:43;;;;;;;15.57;8.47;;;9.70;99.90;;;;;;5035881;28;20191;-81
2022/01/02 02:49:54;;;;;;;18.33;8.90;;;9.70;99.90;;;;;;5035528;28;20214;-82
2022/01/02 02:52:34;;;;;;;16.53;8.97;;;9.70;99.90;;;;;;5035643;28;20252;-81
2022/01/02 02:55:01;;;;;;;19.13;9.57;;;9.60;99.90;;;;;;5035367;28;20685;-81
2022/01/02 02:57:28;;;;;;;15.63;9.27;;;9.60;99.90;;;;;;5035556;28;20572;-82
2022/01/02 02:59:55;;;;;;;19.43;9.97;;;9.60;99.90;;;;;;5035265;28;20652;-82
2022/01/02 03:02:22;;;;;;;16.87;9.43;;;9.60;99.90;;;;;;5035084;28;20200;-82
2022/01/02 03:04:49;;;;;;;19.97;9.57;;;9.50;99.90;;;;;;5035623;28;20197;-82
2022/01/02 03:07:16;;;;;;;22.53;9.80;;;9.50;99.90;;;;;;5035406;28;20246;-83
2022/01/02 03:09:49;;;;;;;21.47;9.70;;;9.50;99.90;;;;;;5035305;28;20195;-82
2022/01/02 03:12:16;;;;;;;16.23;9.13;;;9.50;99.90;;;;;;5035049;28;20532;-82
2022/01/02 03:14:43;;;;;;;19.67;13.07;;;9.40;99.90;;;;;;5035056;28;20192;-82
2022/01/02 03:17:09;;;;;;;16.20;9.20;;;9.40;99.90;;;;;;5035016;28;20197;-81
2022/01/02 03:19:37;;;;;;;19.17;9.50;;;9.40;99.90;;;;;;5034860;28;20223;-82
2022/01/02 03:22:07;;;;;;;18.60;9.40;;;9.40;99.90;;;;;;5034531;28;20200;-82
2022/01/02 03:24:34;;;;;;;17.73;9.03;;;9.30;99.90;;;;;;5034813;28;20228;-82
2022/01/02 03:27:03;;;;;;;17.00;9.33;;;9.30;99.90;;;;;;5034382;28;20193;-82
2022/01/02 03:29:30;;;;;;;16.30;9.43;;;9.30;99.90;;;;;;5034574;28;20223;-83
2022/01/02 03:31:57;;;;;;;15.53;8.50;;;9.20;99.90;;;;;;5034807;28;20241;-83
2022/01/02 03:34:24;;;;;;;20.87;9.50;;;9.20;99.90;;;;;;5034867;28;20244;-82
2022/01/02 03:36:50;;;;;;;14.33;8.93;;;9.20;99.90;;;;;;5034586;28;20198;-82
2022/01/02 03:39:17;;;;;;;17.43;9.90;;;9.10;99.90;;;;;;5034866;28;20195;-82
2022/01/02 03:41:44;;;;;;;15.53;9.40;;;9.10;99.90;;;;;;5034464;28;20197;-82
2022/01/02 03:44:13;;;;;;;19.50;9.53;;;9.10;99.90;;;;;;5034771;28;20194;-81
2022/01/02 03:46:40;;;;;;;17.37;9.73;;;9.10;99.90;;;;;;5034130;28;20186;-82
2022/01/02 03:49:07;;;;;;;18.27;9.63;;;9.10;99.90;;;;;;5034399;28;20190;-82
2022/01/02 03:51:34;;;;;;;19.53;10.17;;;9.00;99.90;;;;;;5034380;28;20271;-81
2022/01/02 03:54:00;;;;;;;15.13;8.60;;;9.00;99.90;;;;;;5034264;28;20722;-83
2022/01/02 03:56:27;;;;;;;16.57;8.83;;;9.00;99.90;;;;;;5034434;28;20198;-82
2022/01/02 03:58:54;;;;;;;15.93;9.00;;;8.90;99.90;;;;;;5034826;28;20551;-82
2022/01/02 04:01:23;;;;;;;19.80;9.27;;;8.90;99.90;;;;;;5034091;28;20198;-81
2022/01/02 04:03:50;;;;;;;15.67;9.70;;;8.80;99.90;;;;;;5034018;28;20199;-81
2022/01/02 04:06:17;;;;;;;16.90;9.00;;;8.80;99.90;;;;;;5033841;28;20190;-82
2022/01/02 04:08:44;;;;;;;17.23;9.33;;;8.70;99.90;;;;;;5034232;28;20193;-81
2022/01/02 04:11:11;;;;;;;16.90;8.90;;;8.70;99.90;;;;;;5033803;28;20699;-81
2022/01/02 04:13:37;;;;;;;16.67;9.17;;;8.70;99.90;;;;;;5033681;28;20186;-81
2022/01/02 04:16:04;;;;;;;18.50;8.83;;;8.70;99.90;;;;;;5033871;28;20201;-81
2022/01/02 04:18:33;;;;;;;17.73;8.93;;;8.70;99.90;;;;;;5034128;28;20241;-82
2022/01/02 04:21:00;;;;;;;15.87;9.27;;;8.70;99.90;;;;;;5033965;28;20205;-82
2022/01/02 04:23:27;;;;;;;17.90;9.97;;;8.80;99.90;;;;;;5033983;28;20249;-82
2022/01/02 04:25:53;;;;;;;20.67;9.63;;;8.80;99.90;;;;;;5033893;28;20241;-82
2022/01/02 04:28:20;;;;;;;20.43;9.83;;;8.70;99.90;;;;;;5033940;28;20201;-83
2022/01/02 04:30:47;;;;;;;18.30;9.53;;;8.70;99.90;;;;;;5033758;28;20287;-81
2022/01/02 04:33:14;;;;;;;20.93;9.93;;;8.70;99.90;;;;;;5033524;28;20189;-82
2022/01/02 04:35:43;;;;;;;20.20;10.43;;;8.70;99.90;;;;;;5033340;28;20267;-81
2022/01/02 04:38:10;;;;;;;17.07;9.60;;;8.70;99.90;;;;;;5033339;28;20684;-81
2022/01/02 04:40:36;;;;;;;19.13;9.83;;;8.70;99.90;;;;;;5033174;28;20723;-82
2022/01/02 04:43:03;;;;;;;19.33;9.37;;;8.70;99.90;;;;;;5033447;28;20589;-81
2022/01/02 04:45:30;;;;;;;22.57;10.63;;;8.70;99.90;;;;;;5033765;28;20197;-82
2022/01/02 04:47:57;;;;;;;19.80;10.70;;;8.70;99.90;;;;;;5033716;28;20255;-81
2022/01/02 04:50:24;;;;;;;21.00;10.83;;;8.70;99.90;;;;;;5033126;28;20576;-81
2022/01/02 04:52:53;;;;;;;19.70;10.70;;;8.60;99.90;;;;;;5033050;28;20194;-82
2022/01/02 04:55:20;;;;;;;14.77;9.37;;;8.70;99.90;;;;;;5033055;28;20195;-82
2022/01/02 04:57:47;;;;;;;18.93;9.17;;;8.60;99.90;;;;;;5033504;28;20202;-83
2022/01/02 05:00:15;;;;;;;19.43;9.50;;;8.60;99.90;;;;;;5032906;28;20648;-81
2022/01/02 05:02:42;;;;;;;17.50;9.37;;;8.60;99.90;;;;;;5032561;28;20198;-82
2022/01/02 05:05:11;;;;;;;17.80;11.13;;;8.70;99.90;;;;;;5032822;28;20186;-82
2022/01/02 05:07:38;;;;;;;17.07;9.67;;;8.60;99.90;;;;;;5032779;28;20200;-81
2022/01/02 05:10:07;;;;;;;15.77;9.70;;;8.60;99.90;;;;;;5032744;28;20526;-82
2022/01/02 05:12:35;;;;;;;22.70;11.90;;;8.60;99.90;;;;;;5032848;28;20267;-81
2022/01/02 05:15:01;;;;;;;17.70;8.17;;;8.70;99.90;;;;;;5032949;28;20193;-83
2022/01/02 05:17:28;;;;;;;20.47;8.73;;;8.60;99.90;;;;;;5032668;28;20614;-82
2022/01/02 05:19:55;;;;;;;14.90;8.63;;;8.60;99.90;;;;;;5032565;28;20714;-82
2022/01/02 05:22:23;;;;;;;18.87;9.30;;;8.60;99.90;;;;;;5032333;28;20202;-83
2022/01/02 05:24:50;;;;;;;19.93;10.43;;;8.60;99.90;;;;;;5032785;28;20198;-83
2022/01/02 05:27:18;;;;;;;20.03;8.40;;;8.60;99.90;;;;;;5032586;28;20202;-82
2022/01/02 05:29:45;;;;;;;13.07;7.43;;;8.60;99.90;;;;;;5032799;28;20201;-81
2022/01/02 05:32:12;;;;;;;14.60;6.60;;;8.50;99.90;;;;;;5032079;28;20572;-82
2022/01/02 05:34:39;;;;;;;13.80;7.97;;;8.50;99.90;;;;;;5031728;28;20594;-81
2022/01/02 05:37:07;;;;;;;12.57;6.77;;;8.50;99.90;;;;;;5032140;28;20612;-82
2022/01/02 05:39:34;;;;;;;16.80;9.20;;;8.50;99.90;;;;;;5032558;28;20693;-82
2022/01/02 05:42:01;;;;;;;15.53;8.40;;;8.40;99.90;;;;;;5032325;28;20210;-81
2022/01/02 05:44:30;;;;;;;13.40;7.50;;;8.40;99.90;;;;;;5032418;28;20201;-83
2022/01/02 05:46:57;;;;;;;10.60;6.67;;;8.40;99.90;;;;;;5032194;28;20656;-81
2022/01/02 05:49:24;;;;;;;13.47;6.47;;;8.40;99.90;;;;;;5031829;28;20194;-83
2022/01/02 05:51:51;;;;;;;15.23;7.43;;;8.30;99.90;;;;;;5032342;28;20220;-82
2022/01/02 05:54:19;;;;;;;13.40;9.20;;;8.30;99.90;;;;;;5032044;28;20247;-81
2022/01/02 05:56:46;;;;;;;20.27;8.30;;;8.30;99.90;;;;;;5032073;28;20198;-83
2022/01/02 05:59:13;;;;;;;16.43;7.90;;;8.20;99.90;;;;;;5032443;28;20194;-82
2022/01/02 06:01:41;;;;;;;12.63;7.70;;;8.20;99.90;;;;;;5032408;28;20279;-81
2022/01/02 06:04:08;;;;;;;15.87;8.90;;;8.20;99.90;;;;;;5031835;28;20184;-81
2022/01/02 06:06:35;;;;;;;13.80;8.40;;;8.20;99.90;;;;;;5032725;28;20246;-80
2022/01/02 06:09:02;;;;;;;14.03;7.87;;;8.20;99.90;;;;;;5032246;28;20247;-82
2022/01/02 06:11:30;;;;;;;18.20;8.13;;;8.10;99.90;;;;;;5032146;28;20232;-82
2022/01/02 06:13:57;;;;;;;15.87;10.20;;;8.10;99.90;;;;;;5031440;28;20227;-81
2022/01/02 06:16:24;;;;;;;16.73;9.17;;;8.10;99.90;;;;;;5031919;28;20552;-82
2022/01/02 06:18:53;;;;;;;20.97;11.83;;;8.10;99.90;;;;;;5031824;28;20202;-81
2022/01/02 06:21:21;;;;;;;18.27;10.47;;;8.10;99.90;;;;;;5031851;28;20288;-81
2022/01/02 06:23:47;;;;;;;17.00;9.37;;;8.10;99.90;;;;;;5031835;28;20248;-82
2022/01/02 06:26:14;;;;;;;24.77;14.03;;;8.10;99.90;;;;;;5031747;28;20618;-82
2022/01/02 06:28:41;;;;;;;23.20;12.20;;;8.20;99.90;;;;;;5032117;28;20197;-83
2022/01/02 06:31:09;;;;;;;18.80;9.13;;;8.20;99.90;;;;;;5031959;28;20688;-82
2022/01/02 06:33:36;;;;;;;17.00;9.20;;;8.20;99.90;;;;;;5031504;28;20673;-82
2022/01/02 06:36:04;;;;;;;13.13;8.00;;;8.20;99.90;;;;;;5031655;28;20198;-81
2022/01/02 06:38:31;;;;;;;14.23;8.60;;;8.20;99.90;;;;;;5032199;28;20231;-81
2022/01/02 06:40:58;;;;;;;16.10;8.83;;;8.20;99.90;;;;;;5031924;28;20198;-82
2022/01/02 06:43:25;;;;;;;18.40;10.83;;;8.20;99.90;;;;;;5031363;28;20596;-82
2022/01/02 06:45:53;;;;;;;18.23;9.83;;;8.30;99.90;;;;;;5031949;28;20190;-82
2022/01/02 06:48:19;;;;;;;13.90;8.60;;;8.30;99.90;;;;;;5031940;28;20248;-82
2022/01/02 06:50:47;;;;;;;16.53;8.97;;;8.30;99.90;;;;;;5031930;28;20667;-82
2022/01/02 06:53:15;;;;;;;15.10;7.73;;;8.30;99.90;;;;;;5031319;28;20244;-81
2022/01/02 06:55:42;;;;;;;16.17;7.57;;;8.30;99.90;;;;;;5031461;28;20248;-82
2022/01/02 06:58:09;;;;;;;14.77;8.77;;;8.40;99.90;;;;;;5032076;28;20248;-81
2022/01/02 07:00:36;;;;;;;14.30;7.70;;;8.30;99.90;;;;;;5033985;28;20194;-83
2022/01/02 07:03:03;;;;;;;18.97;8.77;;;8.40;99.90;;;;;;5034843;28;20197;-81
2022/01/02 07:05:30;;;;;;;12.73;7.97;;;8.40;99.90;;;;;;5034737;28;20190;-81
2022/01/02 07:07:57;;;;;;;11.17;7.07;;;8.40;99.90;;;;;;5035397;28;20619;-81
2022/01/02 07:10:26;;;;;;;14.77;8.97;;;8.40;99.90;;;;;;5035378;28;20275;-82
2022/01/02 07:12:53;;;;;;;12.30;6.33;;;8.40;99.90;;;;;;5034868;28;20638;-81
2022/01/02 07:15:20;;;;;;;11.93;6.67;;;8.40;99.90;;;;;;5035243;28;20189;-81
2022/01/02 07:17:47;;;;;;;12.80;6.93;;;8.40;99.90;;;;;;5034945;28;20254;-81
2022/01/02 07:20:14;;;;;;;15.20;7.03;;;8.40;99.90;;;;;;5027644;28;20650;-81
2022/01/02 07:22:42;;;;;;;13.77;8.53;;;8.40;99.90;;;;;;5015391;28;20265;-83
2022/01/02 07:25:10;;;;;;;13.23;7.90;;;8.40;99.90;;;;;;5015398;28;20191;-81
2022/01/02 07:27:40;;;;;;;14.70;7.07;;;8.40;99.90;;;;;;5015532;28;20194;-81
2022/01/02 07:30:10;;;;;;;14.00;6.87;;;8.40;99.90;;;;;;5015074;28;20256;-81
2022/01/02 07:32:39;;;;;;;13.73;7.50;;;8.40;99.90;;;;;;5014642;28;20719;-82
2022/01/02 07:35:16;;;;;;;12.47;7.87;;;8.40;99.90;;;;;;5041074;28;20189;-84
2022/01/02 07:37:55;;;;;;;16.07;7.20;;;8.50;99.90;;;;;;5052955;28;20645;-84
2022/01/02 07:40:34;;;;;;;13.20;6.70;;;8.50;99.90;;;;;;5054107;28;20252;-85
2022/01/02 07:43:03;;;;;;;10.37;6.93;;;8.50;99.90;;;;;;5039218;28;20590;-82
2022/01/02 07:45:40;;;;;;;13.33;7.40;;;8.50;99.90;;;;;;5038057;28;20204;-85
2022/01/02 07:48:08;;;;;;;13.80;7.47;;;8.50;99.90;;;;;;5036859;28;20197;-81
2022/01/02 07:50:35;;;;;;;13.43;8.73;;;8.50;99.90;;;;;;5036783;28;20717;-84
2022/01/02 07:53:01;;;;;;;13.77;9.57;;;8.50;99.90;;;;;;5037233;28;20209;-82
2022/01/02 07:55:43;;;;;;;;;;;;;;;;;;;;;
2022/01/02 07:58:12;;;;;;;19.23;8.57;;;8.60;99.90;;;;;;5040274;28;20192;-83
2022/01/02 08:00:39;;;;;;;12.70;7.10;;;8.60;99.90;;;;;;5034774;28;20200;-83
2022/01/02 08:03:09;;;;;;;9.83;6.47;;;8.70;99.90;;;;;;5038481;28;20174;-85
2022/01/02 08:05:36;;;;;;;16.60;7.63;;;8.70;99.90;;;;;;5040361;28;20659;-81
2022/01/02 08:08:03;;;;;;;13.53;6.70;;;8.60;99.90;;;;;;5046103;28;20201;-83
2022/01/02 08:10:31;;;;;;;10.47;6.60;;;8.60;99.90;;;;;;5034279;28;20197;-84
2022/01/02 08:13:39;;;;;;;9.30;6.47;;;8.70;99.90;;;;;;5047555;28;20217;-87
2022/01/02 08:16:08;;;;;;;12.03;7.70;;;8.70;99.90;;;;;;5036459;28;20203;-83
2022/01/02 08:19:08;;;;;;;;;;;;;;;;;;;;;
2022/01/02 08:21:35;;;;;;;9.57;6.13;;;8.70;99.90;;;;;;5029798;28;20201;-82
2022/01/02 08:24:20;;;;;;;12.67;6.53;;;8.70;99.90;;;;;;5045397;28;20259;-87
2022/01/02 08:26:47;;;;;;;13.97;5.90;;;8.70;99.90;;;;;;5037056;28;20660;-81
2022/01/02 08:29:27;;;;;;;13.03;6.10;;;8.80;99.90;;;;;;5039392;28;20720;-86
2022/01/02 08:31:56;;;;;;;9.63;5.80;;;8.80;99.90;;;;;;5040569;28;20205;-83
2022/01/02 08:34:34;;;;;;;9.73;6.40;;;8.80;99.90;;;;;;5040745;28;20201;-84
2022/01/02 08:37:01;;;;;;;10.00;6.37;;;8.90;99.90;;;;;;5039237;28;20663;-83
2022/01/02 08:39:33;;;;;;;8.83;5.90;;;8.90;99.90;;;;;;5043703;28;20205;-85
2022/01/02 08:42:00;;;;;;;15.17;6.87;;;8.90;99.90;;;;;;5040004;28;20174;-84
2022/01/02 08:44:43;;;;;;;10.63;6.80;;;9.00;99.90;;;;;;5043654;28;20201;-86
2022/01/02 08:47:12;;;;;;;11.43;7.37;;;9.00;99.90;;;;;;5036347;28;20233;-85
2022/01/02 08:49:39;;;;;;;9.93;6.17;;;9.00;99.90;;;;;;5040832;28;20220;-85
2022/01/02 08:52:07;;;;;;;11.93;6.70;;;9.10;99.90;;;;;;5048342;28;20764;-84
2022/01/02 08:54:34;;;;;;;16.53;9.80;;;9.10;99.90;;;;;;5032467;28;20206;-83
2022/01/02 08:57:07;;;;;;;13.97;7.47;;;9.10;99.90;;;;;;5037554;28;20200;-85
2022/01/02 08:59:34;;;;;;;12.87;7.80;;;9.20;99.90;;;;;;5034966;28;20206;-83
2022/01/02 09:02:01;;;;;;;11.87;7.33;;;9.20;99.90;;;;;;5028726;28;20194;-82
2022/01/02 09:04:29;;;;;;;12.70;7.73;;;9.20;99.90;;;;;;5028910;28;20211;-84
2022/01/02 09:06:56;;;;;;;10.80;6.73;;;9.20;99.90;;;;;;5033287;28;20246;-82
2022/01/02 09:09:24;;;;;;;11.77;6.37;;;9.20;99.90;;;;;;5033028;28;20208;-82
2022/01/02 09:11:52;;;;;;;14.17;6.60;;;9.30;99.90;;;;;;5024750;28;20214;-83
2022/01/02 09:14:19;;;;;;;10.60;5.47;;;9.30;99.90;;;;;;5031887;28;20190;-82
2022/01/02 09:16:46;;;;;;;10.33;5.87;;;9.30;99.90;;;;;;5019827;28;20193;-84
2022/01/02 09:19:20;;;;;;;12.13;7.20;;;9.20;99.90;;;;;;5011628;28;20200;-86
2022/01/02 09:21:50;;;;;;;14.40;8.70;;;9.20;99.90;;;;;;5011765;28;20203;-87
2022/01/02 09:24:18;;;;;;;11.90;6.83;;;9.20;99.90;;;;;;5011810;28;20242;-83
2022/01/02 09:26:46;;;;;;;16.10;8.83;;;9.30;99.90;;;;;;5013492;28;20203;-82
2022/01/02 09:29:13;;;;;;;19.63;10.80;;;9.30;99.90;;;;;;5011283;28;20192;-82
2022/01/02 09:31:40;;;;;;;16.90;7.70;;;9.30;99.90;;;;;;5011507;28;20198;-83
2022/01/02 09:34:07;;;;;;;43.67;21.63;;;9.20;99.90;;;;;;5024929;28;20217;-81
2022/01/02 09:36:34;;;;;;;42.47;22.73;;;9.30;99.90;;;;;;5031668;28;20203;-84
2022/01/02 09:39:06;;;;;;;25.40;14.00;;;9.30;99.90;;;;;;5031972;28;20291;-82
2022/01/02 09:41:39;;;;;;;18.37;9.90;;;9.30;99.90;;;;;;5031408;28;20226;-83
2022/01/02 09:44:10;;;;;;;17.47;8.40;;;9.30;99.90;;;;;;5030831;28;20189;-82
2022/01/02 09:46:41;;;;;;;17.00;8.13;;;9.40;99.90;;;;;;5013729;28;20213;-82
2022/01/02 09:49:09;;;;;;;13.73;7.63;;;9.40;99.90;;;;;;5011646;28;20181;-82
2022/01/02 09:51:36;;;;;;;11.27;6.50;;;9.40;99.90;;;;;;5019009;28;20306;-84
2022/01/02 09:54:05;;;;;;;11.40;5.87;;;9.50;99.90;;;;;;5039399;28;20776;-83
2022/01/02 09:56:32;;;;;;;13.83;7.90;;;9.60;99.90;;;;;;5030884;28;20241;-81
2022/01/02 09:59:01;;;;;;;11.00;6.60;;;9.60;99.90;;;;;;5031487;28;20219;-82
2022/01/02 10:01:29;;;;;;;11.03;5.53;;;9.60;99.90;;;;;;5031410;28;20199;-81
2022/01/02 10:03:57;;;;;;;11.27;7.43;;;9.70;99.90;;;;;;5031027;28;20193;-81
2022/01/02 10:06:40;;;;;;;10.67;6.20;;;9.70;99.90;;;;;;5030911;28;20231;-81
2022/01/02 10:09:11;;;;;;;11.23;6.33;;;9.80;99.90;;;;;;5031496;28;20251;-83
2022/01/02 10:11:40;;;;;;;16.10;5.70;;;9.80;99.90;;;;;;5031075;28;20267;-82
2022/01/02 10:14:10;;;;;;;9.73;5.77;;;9.70;99.90;;;;;;5030744;28;20195;-82
2022/01/02 10:16:41;;;;;;;12.47;5.40;;;9.80;99.90;;;;;;5030856;28;20569;-84
2022/01/02 10:19:20;;;;;;;7.63;4.97;;;9.80;99.90;;;;;;5031086;28;20632;-82
2022/01/02 10:21:56;;;;;;;11.50;6.57;;;9.80;99.90;;;;;;5031242;28;20272;-82
2022/01/02 10:24:27;;;;;;;7.53;5.17;;;9.80;99.90;;;;;;5030120;28;20203;-82
2022/01/02 10:27:12;;;;;;;11.50;5.90;;;9.80;99.90;;;;;;5025409;28;20196;-82
2022/01/02 10:29:45;;;;;;;14.47;7.97;;;9.80;99.90;;;;;;5031654;28;20243;-83
2022/01/02 10:32:29;;;;;;;15.63;10.60;;;9.80;99.90;;;;;;5037164;28;20212;-86
2022/01/02 10:35:17;;;;;;;9.83;5.97;;;9.90;99.90;;;;;;5047800;28;20592;-85
2022/01/02 10:37:51;;;;;;;19.27;11.87;;;9.90;99.90;;;;;;5025299;28;20261;-83
2022/01/02 10:40:28;;;;;;;10.67;6.57;;;10.00;99.90;;;;;;5046978;28;20220;-83
2022/01/02 10:42:56;;;;;;;13.53;7.73;;;10.00;99.90;;;;;;5044125;28;20631;-83
2022/01/02 10:45:35;;;;;;;14.53;8.20;;;10.10;99.90;;;;;;5045904;28;20201;-84
2022/01/02 10:48:06;;;;;;;9.90;6.37;;;10.20;99.90;;;;;;5046330;28;20204;-87
2022/01/02 10:50:35;;;;;;;13.73;7.23;;;10.30;99.90;;;;;;5042389;28;20178;-81
2022/01/02 10:53:14;;;;;;;12.47;6.80;;;10.40;99.90;;;;;;5047707;28;20611;-85
2022/01/02 10:55:50;;;;;;;11.93;6.33;;;10.40;99.90;;;;;;5042517;28;20250;-84
2022/01/02 10:58:19;;;;;;;14.23;9.83;;;10.50;99.90;;;;;;5043020;28;20201;-84
2022/01/02 11:00:46;;;;;;;10.90;6.60;;;10.50;99.90;;;;;;5041488;28;20201;-85
2022/01/02 11:03:26;;;;;;;13.30;6.93;;;10.60;99.90;;;;;;5042533;28;20194;-85
2022/01/02 11:06:06;;;;;;;14.43;9.10;;;10.60;99.90;;;;;;5043516;28;20259;-83
2022/01/02 11:08:47;;;;;;;17.00;10.20;;;10.70;99.90;;;;;;5029999;28;20199;-86
2022/01/02 11:11:20;;;;;;;14.80;8.57;;;10.80;99.90;;;;;;5024997;28;20187;-84
2022/01/02 11:13:52;;;;;;;12.97;7.63;;;10.90;99.90;;;;;;5021737;28;20222;-85
2022/01/02 11:16:21;;;;;;;28.13;17.73;;;11.00;99.90;;;;;;5023529;28;20174;-84
2022/01/02 11:18:52;;;;;;;15.07;8.63;;;11.00;99.90;;;;;;5026324;28;20824;-86
2022/01/02 11:21:32;;;;;;;11.77;6.13;;;11.20;99.90;;;;;;5036905;28;20643;-83
2022/01/02 11:24:15;;;;;;;10.07;6.53;;;11.20;99.90;;;;;;5021863;28;20284;-85
2022/01/02 11:26:56;;;;;;;9.23;5.97;;;11.20;99.90;;;;;;5041342;28;20199;-85
2022/01/02 11:29:29;;;;;;;7.37;4.90;;;11.20;99.90;;;;;;5037761;28;20559;-82
2022/01/02 11:32:01;;;;;;;8.33;4.90;;;11.30;99.90;;;;;;5039760;28;20210;-84
2022/01/02 11:34:32;;;;;;;10.47;6.33;;;11.20;99.90;;;;;;5041718;28;20660;-83
2022/01/02 11:37:21;;;;;;;11.17;6.63;;;11.20;99.90;;;;;;5042599;28;20190;-82
2022/01/02 11:39:56;;;;;;;12.97;7.80;;;11.30;99.90;;;;;;5050248;28;20192;-87
2022/01/02 11:42:51;;;;;;;25.00;10.80;;;11.30;99.90;;;;;;5059618;28;20196;-86
2022/01/02 11:48:26;;;;;;;10.23;6.83;;;11.30;99.90;;;;;;5009375;28;20208;-81
2022/01/02 11:50:54;;;;;;;12.37;7.20;;;11.30;99.90;;;;;;5011758;28;20279;-83
2022/01/02 11:53:23;;;;;;;9.20;5.63;;;11.30;99.90;;;;;;5014078;28;20218;-84
2022/01/02 11:55:52;;;;;;;8.90;5.63;;;11.30;99.90;;;;;;5014743;28;20196;-83
2022/01/02 11:58:51;;;;;;;12.50;7.63;;;11.30;99.90;;;;;;5016027;28;20250;-86
2022/01/02 12:01:48;;;;;;;7.63;5.93;;;11.30;99.90;;;;;;5015843;28;20192;-83
2022/01/02 12:04:17;;;;;;;12.77;8.80;;;11.30;99.90;;;;;;5015138;28;20215;-83
2022/01/02 12:06:45;;;;;;;16.73;9.77;;;11.30;99.90;;;;;;5014869;28;20676;-83
2022/01/02 12:09:35;;;;;;;9.60;6.20;;;11.30;99.90;;;;;;5014502;28;20198;-83
2022/01/02 12:12:05;;;;;;;9.53;5.77;;;11.30;99.90;;;;;;5015154;28;20191;-85
2022/01/02 12:14:51;;;;;;;8.27;4.93;;;11.30;99.90;;;;;;5013717;28;20228;-85
2022/01/02 12:17:23;;;;;;;9.90;5.67;;;11.30;99.90;;;;;;5015634;28;20604;-86
2022/01/02 12:20:05;;;;;;;18.77;11.37;;;11.30;99.90;;;;;;5014641;28;20539;-84
2022/01/02 12:22:48;;;;;;;22.90;16.20;;;11.30;99.90;;;;;;5014942;28;20211;-84
2022/01/02 12:25:25;;;;;;;11.83;8.00;;;11.30;99.90;;;;;;5014469;28;20180;-84
2022/01/02 12:27:55;;;;;;;12.73;6.93;;;11.30;99.90;;;;;;5016387;28;20270;-82
2022/01/02 12:30:25;;;;;;;7.83;5.33;;;11.30;99.90;;;;;;5016113;28;20186;-84
2022/01/02 12:32:52;;;;;;;9.70;5.00;;;11.30;99.90;;;;;;5027711;28;20219;-84
2022/01/02 12:35:22;;;;;;;8.90;5.70;;;11.30;99.90;;;;;;5020279;28;20544;-84
2022/01/02 12:38:10;;;;;;;8.50;4.47;;;11.30;99.90;;;;;;5031138;28;20742;-85
2022/01/02 12:40:39;;;;;;;8.17;5.03;;;11.30;99.90;;;;;;5026577;28;20254;-86
2022/01/02 12:43:21;;;;;;;10.63;6.13;;;11.30;99.90;;;;;;5021955;28;20208;-86
2022/01/02 12:46:09;;;;;;;7.40;4.73;;;11.30;99.90;;;;;;5029260;28;20207;-86
2022/01/02 12:48:36;;;;;;;7.80;4.23;;;11.30;99.90;;;;;;5022784;28;20201;-84
2022/01/02 12:51:10;;;;;;;20.20;10.90;;;11.20;99.90;;;;;;5020250;28;20191;-83
2022/01/02 12:53:37;;;;;;;23.97;13.37;;;11.20;99.90;;;;;;5019801;28;20241;-85
2022/01/02 12:56:07;;;;;;;15.83;8.57;;;11.20;99.90;;;;;;5021518;28;20195;-87
2022/01/02 12:58:39;;;;;;;15.23;8.83;;;11.20;99.90;;;;;;5020250;28;20202;-86
2022/01/02 13:01:08;;;;;;;13.93;9.07;;;11.20;99.90;;;;;;5024532;28;20196;-84
2022/01/02 13:03:35;;;;;;;14.70;8.70;;;11.10;99.90;;;;;;5016553;28;20194;-84
2022/01/02 13:06:04;;;;;;;17.60;10.57;;;11.10;99.90;;;;;;5017802;28;20202;-86